createdAt,value
2023-12-09T00:02:00.037Z,2.55
2023-12-09T00:04:30.940Z,2.58
2023-12-09T00:07:02.000Z,2.61
2023-12-09T00:09:33.108Z,2.62
2023-12-09T00:12:03.985Z,2.62
2023-12-09T00:14:34.852Z,2.64
2023-12-09T00:17:05.757Z,2.67
2023-12-09T00:19:36.577Z,2.68
2023-12-09T00:22:07.531Z,2.69
2023-12-09T00:24:38.238Z,2.71
2023-12-09T00:27:09.029Z,2.73
2023-12-09T00:29:40.258Z,2.74
2023-12-09T00:32:11.060Z,2.75
2023-12-09T00:34:41.884Z,2.75
2023-12-09T00:37:12.714Z,2.77
2023-12-09T00:39:43.587Z,2.78
2023-12-09T00:42:14.799Z,2.78
2023-12-09T00:44:46.047Z,2.77
2023-12-09T00:47:16.895Z,2.81
2023-12-09T00:49:47.716Z,2.84
2023-12-09T00:52:18.541Z,2.86
2023-12-09T00:54:49.304Z,2.88
2023-12-09T00:57:20.354Z,2.90
2023-12-09T00:59:51.165Z,2.93
2023-12-09T01:02:21.931Z,2.93
2023-12-09T01:04:52.738Z,2.93
2023-12-09T01:07:23.576Z,2.94
2023-12-09T01:09:54.237Z,2.95
2023-12-09T01:12:25.173Z,2.97
2023-12-09T01:14:56.056Z,2.99
2023-12-09T01:17:26.868Z,2.99
2023-12-09T01:19:57.709Z,2.98
2023-12-09T01:22:28.838Z,2.97
2023-12-09T01:24:59.904Z,2.98
2023-12-09T01:27:30.780Z,2.99
2023-12-09T01:30:01.560Z,2.99
2023-12-09T01:32:32.470Z,3.01
2023-12-09T01:35:03.564Z,3.03
2023-12-09T01:37:34.592Z,3.03
2023-12-09T01:40:06.255Z,3.04
2023-12-09T01:42:37.065Z,3.04
2023-12-09T01:45:08.896Z,3.05
2023-12-09T01:47:40.502Z,3.06
2023-12-09T01:50:13.034Z,3.07
2023-12-09T01:52:44.589Z,3.06
2023-12-09T01:55:16.101Z,3.09
2023-12-09T01:57:47.687Z,3.09
2023-12-09T02:00:22.076Z,3.09
2023-12-09T02:02:53.447Z,3.09
2023-12-09T02:05:25.274Z,3.10
2023-12-09T02:07:56.087Z,3.08
2023-12-09T02:10:27.174Z,3.08
2023-12-09T02:13:07.385Z,3.08
2023-12-09T02:15:43.642Z,3.08
2023-12-09T02:18:16.999Z,3.09
2023-12-09T02:20:47.864Z,3.12
2023-12-09T02:23:18.664Z,3.14
2023-12-09T02:25:56.405Z,3.17
2023-12-09T02:28:30.906Z,3.19
2023-12-09T02:31:08.921Z,3.19
2023-12-09T02:33:44.528Z,3.21
2023-12-09T02:36:22.679Z,3.28
2023-12-09T02:38:56.094Z,3.31
2023-12-09T02:41:28.915Z,3.34
2023-12-09T02:44:00.116Z,3.34
2023-12-09T02:46:31.126Z,3.32
2023-12-09T02:49:04.241Z,3.29
2023-12-09T02:51:33.589Z,3.25
2023-12-09T02:54:04.536Z,3.23
2023-12-09T02:56:35.353Z,3.23
2023-12-09T02:59:06.169Z,3.21
2023-12-09T03:01:36.967Z,3.20
2023-12-09T03:04:07.896Z,3.21
2023-12-09T03:06:38.731Z,3.22
2023-12-09T03:09:09.768Z,3.22
2023-12-09T03:11:40.530Z,3.19
2023-12-09T03:14:11.282Z,3.18
2023-12-09T03:16:42.021Z,3.17
2023-12-09T03:19:12.937Z,3.13
2023-12-09T03:21:44.859Z,3.13
2023-12-09T03:24:15.730Z,3.14
2023-12-09T03:26:50.683Z,3.17
2023-12-09T03:29:21.504Z,3.15
2023-12-09T03:31:52.339Z,3.18
2023-12-09T03:34:23.215Z,3.19
2023-12-09T03:36:54.116Z,3.20
2023-12-09T03:39:24.917Z,3.21
2023-12-09T03:41:55.799Z,3.22
2023-12-09T03:44:26.538Z,3.22
2023-12-09T03:46:57.314Z,3.22
2023-12-09T03:49:28.174Z,3.23
2023-12-09T03:51:59.077Z,3.22
2023-12-09T03:54:29.845Z,3.18
2023-12-09T03:57:01.160Z,3.12
2023-12-09T03:59:32.524Z,3.07
2023-12-09T04:02:03.372Z,3.08
2023-12-09T04:04:34.224Z,3.05
2023-12-09T04:07:05.316Z,3.03
2023-12-09T04:09:36.248Z,3.00
2023-12-09T04:12:07.895Z,2.99
2023-12-09T04:14:38.711Z,3.00
2023-12-09T04:17:09.474Z,3.02
2023-12-09T04:19:40.358Z,3.02
2023-12-09T04:22:11.569Z,3.00
2023-12-09T04:24:44.143Z,3.01
2023-12-09T04:27:15.043Z,3.03
2023-12-09T04:29:45.938Z,3.03
2023-12-09T04:32:16.700Z,3.00
2023-12-09T04:34:47.505Z,2.99
2023-12-09T04:37:18.398Z,3.01
2023-12-09T04:39:49.199Z,3.02
2023-12-09T04:42:20.825Z,3.00
2023-12-09T04:44:51.645Z,3.02
2023-12-09T04:47:23.211Z,3.02
2023-12-09T04:49:54.122Z,3.05
2023-12-09T04:52:25.251Z,3.05
2023-12-09T04:54:57.022Z,3.06
2023-12-09T04:57:28.764Z,3.06
2023-12-09T04:59:59.840Z,3.01
2023-12-09T05:02:30.724Z,2.99
2023-12-09T05:05:01.540Z,2.98
2023-12-09T05:07:32.261Z,3.00
2023-12-09T05:10:05.248Z,2.98
2023-12-09T05:12:36.193Z,2.97
2023-12-09T05:15:08.685Z,2.97
2023-12-09T05:17:39.573Z,2.95
2023-12-09T05:20:12.315Z,2.97
2023-12-09T05:22:43.146Z,2.99
2023-12-09T05:25:14.446Z,3.00
2023-12-09T05:27:45.231Z,2.99
2023-12-09T05:30:16.678Z,3.00
2023-12-09T05:32:47.585Z,3.02
2023-12-09T05:35:18.611Z,3.02
2023-12-09T05:37:49.432Z,3.04
2023-12-09T05:40:20.604Z,3.01
2023-12-09T05:42:51.486Z,3.05
2023-12-09T05:45:22.426Z,3.04
2023-12-09T05:47:53.561Z,3.03
2023-12-09T05:50:25.041Z,3.04
2023-12-09T05:52:57.374Z,3.06
2023-12-09T05:55:29.347Z,3.09
2023-12-09T05:58:00.238Z,3.10
2023-12-09T06:00:31.470Z,3.11
2023-12-09T06:03:02.468Z,3.12
2023-12-09T06:05:33.432Z,3.14
2023-12-09T06:08:04.405Z,3.13
2023-12-09T06:10:35.282Z,3.11
2023-12-09T06:13:06.199Z,3.12
2023-12-09T06:15:37.264Z,3.33
2023-12-09T06:18:08.793Z,4.06
2023-12-09T06:20:39.558Z,4.36
2023-12-09T06:23:10.706Z,4.32
2023-12-09T06:25:41.433Z,4.24
2023-12-09T06:28:12.339Z,4.10
2023-12-09T06:30:43.214Z,3.95
2023-12-09T06:33:14.173Z,3.82
2023-12-09T06:35:45.051Z,3.73
2023-12-09T06:38:15.890Z,3.62
2023-12-09T06:40:46.755Z,3.52
2023-12-09T06:43:17.491Z,3.41
2023-12-09T06:45:48.259Z,3.33
2023-12-09T06:48:19.973Z,3.26
2023-12-09T06:50:50.857Z,3.20
2023-12-09T06:53:21.835Z,3.16
2023-12-09T06:55:52.578Z,3.15
2023-12-09T06:58:23.365Z,3.13
2023-12-09T07:00:54.246Z,3.12
2023-12-09T07:03:26.639Z,3.10
2023-12-09T07:05:58.223Z,3.09
2023-12-09T07:08:30.739Z,3.09
2023-12-09T07:11:01.759Z,3.08
2023-12-09T07:13:32.525Z,3.09
2023-12-09T07:16:04.438Z,3.09
2023-12-09T07:18:35.370Z,3.10
2023-12-09T07:21:06.969Z,3.10
2023-12-09T07:23:38.069Z,3.09
2023-12-09T07:26:09.410Z,3.10
2023-12-09T07:28:40.264Z,3.11
2023-12-09T07:31:11.737Z,3.11
2023-12-09T07:33:42.669Z,3.12
2023-12-09T07:36:14.005Z,3.12
2023-12-09T07:38:44.929Z,3.12
2023-12-09T07:41:15.956Z,3.13
2023-12-09T07:43:46.809Z,3.12
2023-12-09T07:46:17.839Z,3.11
2023-12-09T07:48:48.816Z,3.12
2023-12-09T07:51:19.757Z,3.13
2023-12-09T07:53:50.645Z,3.13
2023-12-09T07:56:21.605Z,3.14
2023-12-09T07:58:53.168Z,3.15
2023-12-09T08:01:24.145Z,3.18
2023-12-09T08:03:55.056Z,3.21
2023-12-09T08:06:26.078Z,3.22
2023-12-09T08:08:57.014Z,3.26
2023-12-09T08:11:27.809Z,3.31
2023-12-09T08:13:58.576Z,3.38
2023-12-09T08:16:29.377Z,3.43
2023-12-09T08:19:00.415Z,3.51
2023-12-09T08:21:31.253Z,3.57
2023-12-09T08:24:02.890Z,3.61
2023-12-09T08:26:34.133Z,3.63
2023-12-09T08:29:05.891Z,3.66
2023-12-09T08:31:36.711Z,3.68
2023-12-09T08:34:07.588Z,3.70
2023-12-09T08:36:38.558Z,3.73
2023-12-09T08:39:10.112Z,3.78
2023-12-09T08:41:41.015Z,3.80
2023-12-09T08:44:11.819Z,3.82
2023-12-09T08:46:42.684Z,3.84
2023-12-09T08:49:14.316Z,3.86
2023-12-09T08:51:49.256Z,3.86
2023-12-09T08:54:20.180Z,3.85
2023-12-09T08:56:51.057Z,3.85
2023-12-09T08:59:22.013Z,3.85
2023-12-09T09:01:53.122Z,3.86
2023-12-09T09:04:26.928Z,3.87
2023-12-09T09:06:57.714Z,3.89
2023-12-09T09:09:28.628Z,3.93
2023-12-09T09:11:59.538Z,3.94
2023-12-09T09:14:30.441Z,3.96
2023-12-09T09:17:01.273Z,3.97
2023-12-09T09:19:32.457Z,3.95
2023-12-09T09:22:03.796Z,4.01
2023-12-09T09:24:35.033Z,4.03
2023-12-09T09:27:06.494Z,4.06
2023-12-09T09:29:37.390Z,4.06
2023-12-09T09:32:09.334Z,4.06
2023-12-09T09:34:40.216Z,4.07
2023-12-09T09:37:11.080Z,4.07
2023-12-09T09:39:41.981Z,4.08
2023-12-09T09:42:22.286Z,4.09
2023-12-09T09:44:58.214Z,4.11
2023-12-09T09:47:30.742Z,4.12
2023-12-09T09:50:03.651Z,4.11
2023-12-09T09:52:37.462Z,4.14
2023-12-09T09:55:10.272Z,4.17
2023-12-09T09:57:41.677Z,4.20
2023-12-09T10:00:15.856Z,4.22
2023-12-09T10:02:48.177Z,4.23
2023-12-09T10:05:21.631Z,4.27
2023-12-09T10:07:54.690Z,4.33
2023-12-09T10:10:26.346Z,4.42
2023-12-09T10:12:57.348Z,4.46
2023-12-09T10:15:28.353Z,4.54
2023-12-09T10:18:05.037Z,4.59
2023-12-09T10:20:38.025Z,4.65
2023-12-09T10:23:09.510Z,4.70
2023-12-09T10:25:41.805Z,4.74
2023-12-09T10:28:13.657Z,4.79
2023-12-09T10:30:45.542Z,4.80
2023-12-09T10:33:17.064Z,4.83
2023-12-09T10:35:47.933Z,4.85
2023-12-09T10:38:20.285Z,4.85
2023-12-09T10:40:51.309Z,4.84
2023-12-09T10:43:25.294Z,4.81
2023-12-09T10:45:56.202Z,4.81
2023-12-09T10:48:27.314Z,4.83
2023-12-09T10:50:58.355Z,4.85
2023-12-09T10:53:29.210Z,4.86
2023-12-09T10:56:00.731Z,4.85
2023-12-09T10:58:32.303Z,4.84
2023-12-09T11:01:04.576Z,4.83
2023-12-09T11:03:36.489Z,4.82
2023-12-09T11:06:09.450Z,4.80
2023-12-09T11:08:41.883Z,4.81
2023-12-09T11:11:13.846Z,4.83
2023-12-09T11:13:47.602Z,4.79
2023-12-09T11:16:18.440Z,4.84
2023-12-09T11:18:54.310Z,4.85
2023-12-09T11:21:28.064Z,4.88
2023-12-09T11:24:00.972Z,4.90
2023-12-09T11:26:34.341Z,4.90
2023-12-09T11:29:06.978Z,4.91
2023-12-09T11:31:42.759Z,4.92
2023-12-09T11:34:15.780Z,4.96
2023-12-09T11:36:48.214Z,4.99
2023-12-09T11:39:21.988Z,5.03
2023-12-09T11:41:53.435Z,5.06
2023-12-09T11:44:25.237Z,5.08
2023-12-09T11:46:56.333Z,5.11
2023-12-09T11:49:28.721Z,5.14
2023-12-09T11:52:00.240Z,5.18
2023-12-09T11:54:31.177Z,5.21
2023-12-09T11:57:02.273Z,5.26
2023-12-09T11:59:33.149Z,5.27
2023-12-09T12:02:04.085Z,5.27
2023-12-09T12:04:38.920Z,5.30
2023-12-09T12:07:10.117Z,5.36
2023-12-09T12:09:41.242Z,5.41
2023-12-09T12:12:12.412Z,5.49
2023-12-09T12:14:43.665Z,5.64
2023-12-09T12:17:17.304Z,5.80
2023-12-09T12:19:49.156Z,5.95
2023-12-09T12:22:21.291Z,6.06
2023-12-09T12:24:53.401Z,6.14
2023-12-09T12:27:26.854Z,6.21
2023-12-09T12:29:58.940Z,6.22
2023-12-09T12:32:30.199Z,6.21
2023-12-09T12:35:04.340Z,6.22
2023-12-09T12:37:35.585Z,6.22
2023-12-09T12:40:07.629Z,6.13
2023-12-09T12:42:38.687Z,6.01
2023-12-09T12:45:20.384Z,5.88
2023-12-09T12:47:51.687Z,5.84
2023-12-09T12:50:23.132Z,5.83
2023-12-09T12:52:54.521Z,5.75
2023-12-09T12:55:25.593Z,5.73
2023-12-09T12:57:57.030Z,5.68
2023-12-09T13:00:28.050Z,5.62
2023-12-09T13:02:59.138Z,5.62
2023-12-09T13:05:30.155Z,5.66
2023-12-09T13:08:01.248Z,5.68
2023-12-09T13:10:32.199Z,5.71
2023-12-09T13:13:03.483Z,5.76
2023-12-09T13:15:34.825Z,5.78
2023-12-09T13:18:07.385Z,5.81
2023-12-09T13:20:39.077Z,5.84
2023-12-09T13:23:10.066Z,5.85
2023-12-09T13:25:41.802Z,5.87
2023-12-09T13:28:12.898Z,5.89
2023-12-09T13:30:43.944Z,5.92
2023-12-09T13:33:15.058Z,5.92
2023-12-09T13:35:46.374Z,5.93
2023-12-09T13:38:17.603Z,5.94
2023-12-09T13:40:49.064Z,5.95
2023-12-09T13:43:20.084Z,5.94
2023-12-09T13:45:51.331Z,5.91
2023-12-09T13:48:23.025Z,5.87
2023-12-09T13:50:54.293Z,5.83
2023-12-09T13:53:25.506Z,5.78
2023-12-09T13:55:56.700Z,5.74
2023-12-09T13:58:28.873Z,5.69
2023-12-09T14:01:00.553Z,5.63
2023-12-09T14:03:31.925Z,5.57
2023-12-09T14:06:03.069Z,5.51
2023-12-09T14:08:35.182Z,5.45
2023-12-09T14:11:08.684Z,5.40
2023-12-09T14:13:40.878Z,5.33
2023-12-09T14:16:13.352Z,5.25
2023-12-09T14:18:44.453Z,5.15
2023-12-09T14:21:15.508Z,5.02
2023-12-09T14:23:46.538Z,4.92
2023-12-09T14:26:17.660Z,4.84
2023-12-09T14:28:48.635Z,4.74
2023-12-09T14:31:19.677Z,4.64
2023-12-09T14:33:51.339Z,4.55
2023-12-09T14:36:22.525Z,4.45
2023-12-09T14:38:54.024Z,4.35
2023-12-09T14:41:24.906Z,4.26
2023-12-09T14:43:59.756Z,4.19
2023-12-09T14:46:36.929Z,4.12
2023-12-09T14:49:08.080Z,4.06
2023-12-09T14:51:43.667Z,4.01
2023-12-09T14:54:18.132Z,3.96
2023-12-09T14:56:50.379Z,3.90
2023-12-09T14:59:21.480Z,3.85
2023-12-09T15:01:52.387Z,3.79
2023-12-09T15:04:23.426Z,3.75
2023-12-09T15:06:54.702Z,3.67
2023-12-09T15:09:26.850Z,3.67
2023-12-09T15:11:59.117Z,3.62
2023-12-09T15:14:29.416Z,3.58
2023-12-09T15:17:00.522Z,3.55
2023-12-09T15:19:31.772Z,3.52
2023-12-09T15:22:02.779Z,3.49
2023-12-09T15:24:33.999Z,3.45
2023-12-09T15:27:05.788Z,3.43
2023-12-09T15:29:37.026Z,3.42
2023-12-09T15:32:08.615Z,3.41
2023-12-09T15:34:40.064Z,3.39
2023-12-09T15:37:11.199Z,3.36
2023-12-09T15:39:42.916Z,3.35
2023-12-09T15:42:14.457Z,3.34
2023-12-09T15:44:45.415Z,3.36
2023-12-09T15:47:16.925Z,3.45
2023-12-09T15:49:47.998Z,3.45
2023-12-09T15:52:18.956Z,3.42
2023-12-09T15:54:49.883Z,3.37
2023-12-09T15:57:21.341Z,3.34
2023-12-09T15:59:54.720Z,3.30
2023-12-09T16:02:28.257Z,3.29
2023-12-09T16:05:00.004Z,3.29
2023-12-09T16:07:31.284Z,3.28
2023-12-09T16:10:02.343Z,3.27
2023-12-09T16:12:33.523Z,3.25
2023-12-09T16:15:05.832Z,3.25
2023-12-09T16:17:37.270Z,3.25
2023-12-09T16:20:11.617Z,3.25
2023-12-09T16:22:42.846Z,3.25
2023-12-09T16:25:14.162Z,3.23
2023-12-09T16:27:45.386Z,3.26
2023-12-09T16:30:17.843Z,3.25
2023-12-09T16:32:50.910Z,3.26
2023-12-09T16:35:22.439Z,3.25
2023-12-09T16:37:53.571Z,3.27
2023-12-09T16:40:24.993Z,3.28
2023-12-09T16:42:56.146Z,3.28
2023-12-09T16:45:27.425Z,3.30
2023-12-09T16:47:58.794Z,3.31
2023-12-09T16:50:29.832Z,3.32
2023-12-09T16:53:00.860Z,3.34
2023-12-09T16:55:31.854Z,3.36
2023-12-09T16:58:02.967Z,3.37
2023-12-09T17:00:34.568Z,3.39
2023-12-09T17:03:06.005Z,3.39
2023-12-09T17:05:37.222Z,3.40
2023-12-09T17:08:08.768Z,3.41
2023-12-09T17:10:39.681Z,3.43
2023-12-09T17:13:10.601Z,3.43
2023-12-09T17:15:41.653Z,3.44
2023-12-09T17:18:13.237Z,3.46
2023-12-09T17:20:44.330Z,3.49
2023-12-09T17:23:16.283Z,3.50
2023-12-09T17:25:47.278Z,3.52
2023-12-09T17:28:19.800Z,3.54
2023-12-09T17:30:51.421Z,3.54
2023-12-09T17:33:22.858Z,3.56
2023-12-09T17:35:54.043Z,3.57
2023-12-09T17:38:25.036Z,3.59
2023-12-09T17:40:56.090Z,3.62
2023-12-09T17:43:27.178Z,3.65
2023-12-09T17:45:58.475Z,3.69
2023-12-09T17:48:29.931Z,3.72
2023-12-09T17:51:00.933Z,3.76
2023-12-09T17:53:31.870Z,3.80
2023-12-09T17:56:03.025Z,3.82
2023-12-09T17:58:33.993Z,3.84
2023-12-09T18:01:05.173Z,3.85
2023-12-09T18:03:36.329Z,3.87
2023-12-09T18:06:08.707Z,3.89
2023-12-09T18:08:39.812Z,3.92
2023-12-09T18:11:11.776Z,3.94
2023-12-09T18:13:43.478Z,3.96
2023-12-09T18:16:18.016Z,3.98
2023-12-09T18:18:49.109Z,4.00
2023-12-09T18:21:20.111Z,4.01
2023-12-09T18:23:51.102Z,4.05
2023-12-09T18:26:22.066Z,4.07
2023-12-09T18:28:53.442Z,4.09
2023-12-09T18:31:24.425Z,4.09
2023-12-09T18:33:55.642Z,4.11
2023-12-09T18:36:26.812Z,4.14
2023-12-09T18:38:57.839Z,4.17
2023-12-09T18:41:28.901Z,4.18
2023-12-09T18:43:59.940Z,4.17
2023-12-09T18:46:30.988Z,4.16
2023-12-09T18:49:02.254Z,4.16
2023-12-09T18:51:33.402Z,4.15
2023-12-09T18:54:04.579Z,4.15
2023-12-09T18:56:36.781Z,4.16
2023-12-09T18:59:08.709Z,4.16
2023-12-09T19:01:40.071Z,4.17
2023-12-09T19:04:11.160Z,4.18
2023-12-09T19:06:49.795Z,4.17
2023-12-09T19:09:28.668Z,4.16
2023-12-09T19:11:59.874Z,4.16
2023-12-09T19:14:30.905Z,4.15
2023-12-09T19:17:02.279Z,4.14
2023-12-09T19:19:34.516Z,4.14
2023-12-09T19:22:06.231Z,4.15
2023-12-09T19:24:37.243Z,4.16
2023-12-09T19:27:10.488Z,4.17
2023-12-09T19:29:41.709Z,4.19
2023-12-09T19:32:13.566Z,4.19
2023-12-09T19:34:44.766Z,4.19
2023-12-09T19:37:16.083Z,4.20
2023-12-09T19:39:47.233Z,4.21
2023-12-09T19:42:19.472Z,4.22
2023-12-09T19:44:50.555Z,4.21
2023-12-09T19:47:21.606Z,4.23
2023-12-09T19:49:52.763Z,4.23
2023-12-09T19:52:24.086Z,4.23
2023-12-09T19:54:56.672Z,4.23
2023-12-09T19:57:27.814Z,4.24
2023-12-09T19:59:58.966Z,4.21
2023-12-09T20:02:30.297Z,4.19
2023-12-09T20:05:01.894Z,4.19
2023-12-09T20:07:33.110Z,4.20
2023-12-09T20:10:04.463Z,4.21
2023-12-09T20:12:35.716Z,4.19
2023-12-09T20:15:10.262Z,4.18
2023-12-09T20:17:41.550Z,4.16
2023-12-09T20:20:14.014Z,4.14
2023-12-09T20:22:44.986Z,4.11
2023-12-09T20:25:16.198Z,4.10
2023-12-09T20:27:47.149Z,4.11
2023-12-09T20:30:18.399Z,4.10
2023-12-09T20:32:50.224Z,4.10
2023-12-09T20:35:21.480Z,4.11
2023-12-09T20:37:52.552Z,4.11
2023-12-09T20:40:23.520Z,4.13
2023-12-09T20:42:54.697Z,4.14
2023-12-09T20:45:27.926Z,4.14
2023-12-09T20:47:59.138Z,4.13
2023-12-09T20:50:30.145Z,4.11
2023-12-09T20:53:03.224Z,4.08
2023-12-09T20:55:32.524Z,4.05
2023-12-09T20:58:04.058Z,4.03
2023-12-09T21:00:35.098Z,4.02
2023-12-09T21:03:06.267Z,4.03
2023-12-09T21:05:37.334Z,4.03
2023-12-09T21:08:08.519Z,4.01
2023-12-09T21:10:39.478Z,4.00
2023-12-09T21:13:10.542Z,3.98
2023-12-09T21:15:42.159Z,3.97
2023-12-09T21:18:15.477Z,3.95
2023-12-09T21:20:46.637Z,3.95
2023-12-09T21:23:17.589Z,3.96
2023-12-09T21:25:48.940Z,3.96
2023-12-09T21:28:21.704Z,3.96
2023-12-09T21:30:53.115Z,3.95
2023-12-09T21:33:24.455Z,3.96
2023-12-09T21:35:55.608Z,3.97
2023-12-09T21:38:26.548Z,3.97
2023-12-09T21:40:57.641Z,3.97
2023-12-09T21:43:29.214Z,3.98
2023-12-09T21:46:00.311Z,3.97
2023-12-09T21:48:31.548Z,3.97
2023-12-09T21:51:04.573Z,3.97
2023-12-09T21:53:37.148Z,3.94
2023-12-09T21:56:09.227Z,3.90
2023-12-09T21:58:40.351Z,3.88
2023-12-09T22:01:11.859Z,3.86
2023-12-09T22:03:42.885Z,3.84
2023-12-09T22:06:14.652Z,3.82
2023-12-09T22:08:46.323Z,3.80
2023-12-09T22:11:18.243Z,3.74
2023-12-09T22:13:49.824Z,3.69
2023-12-09T22:16:23.178Z,3.65
2023-12-09T22:18:54.249Z,3.60
2023-12-09T22:21:25.451Z,3.57
2023-12-09T22:23:56.442Z,3.56
2023-12-09T22:26:27.419Z,3.55
2023-12-09T22:28:58.996Z,3.53
2023-12-09T22:31:29.947Z,3.53
2023-12-09T22:34:04.037Z,3.50
2023-12-09T22:36:35.197Z,3.48
2023-12-09T22:39:09.211Z,3.43
2023-12-09T22:41:40.391Z,3.43
2023-12-09T22:44:11.336Z,3.41
2023-12-09T22:46:42.378Z,3.40
2023-12-09T22:49:14.580Z,3.38
2023-12-09T22:51:45.789Z,3.34
2023-12-09T22:54:16.841Z,3.30
2023-12-09T22:56:47.819Z,3.30
2023-12-09T22:59:18.753Z,3.29
2023-12-09T23:01:50.540Z,3.28
2023-12-09T23:04:22.097Z,3.29
2023-12-09T23:06:53.122Z,3.31
2023-12-09T23:09:24.144Z,3.34
2023-12-09T23:11:55.129Z,3.36
2023-12-09T23:14:26.554Z,3.38
2023-12-09T23:16:57.526Z,3.37
2023-12-09T23:19:30.152Z,3.34
2023-12-09T23:22:01.174Z,3.31
2023-12-09T23:24:32.267Z,3.28
2023-12-09T23:27:03.880Z,3.24
2023-12-09T23:29:34.804Z,3.21
2023-12-09T23:32:06.515Z,3.18
2023-12-09T23:34:37.580Z,3.15
2023-12-09T23:37:08.849Z,3.13
2023-12-09T23:39:40.858Z,3.11
2023-12-09T23:42:11.908Z,3.09
2023-12-09T23:44:42.884Z,3.05
2023-12-09T23:47:13.904Z,3.03
2023-12-09T23:49:44.946Z,3.00
2023-12-09T23:52:16.015Z,2.97
2023-12-09T23:54:47.113Z,2.95
2023-12-09T23:57:18.044Z,2.96
2023-12-09T23:59:49.023Z,2.98
